61MA weather

Shirley Airport
Shirley, Massachusetts, United States

Public forecast

Using degrees Fahrenheit for public forecast. Weather courtesy of forecast.io.

METAR (pilot weather report)

Closest report is Fitchburg Municipal Airport, 4.5 nm (8.3 km) WNW. Retrieved 2019/07/16 14:52 UTC (51 minutes ago):

KFIT 161452Z AUTO 19006KT 10SM CLR 27/14 A3006 RMK AO2 SLP180 T02670144 58009

TAF (pilot weather forecast)

Closest forecast is Laurence G Hanscom Field, 17.0 nm (31.4 km) ESE. Retrieved 2019/07/16 12:22 UTC (3 hours ago):

TAF KBED 161120Z 1612/1712 VRB03KT P6SM BKN250 FM161600 24004KT P6SM FEW250 FM170000 19006KT P6SM SCT070 FM170600 22004KT P6SM SCT080